sensor_id;sensor_type;location;lat;lon;timestamp;P1;durP1;ratioP1;P2;durP2;ratioP2
53261;SDS011;39658;51.090;-1.786;2022-07-01T00:01:29;8.80;;;3.00;;
53261;SDS011;39658;51.090;-1.786;2022-07-01T00:03:56;11.95;;;3.20;;
53261;SDS011;39658;51.090;-1.786;2022-07-01T00:06:24;9.65;;;3.15;;
53261;SDS011;39658;51.090;-1.786;2022-07-01T00:08:51;12.43;;;4.00;;
53261;SDS011;39658;51.090;-1.786;2022-07-01T00:11:17;13.38;;;3.85;;
53261;SDS011;39658;51.090;-1.786;2022-07-01T00:13:44;12.38;;;3.30;;
53261;SDS011;39658;51.090;-1.786;2022-07-01T00:16:11;11.10;;;3.63;;
53261;SDS011;39658;51.090;-1.786;2022-07-01T00:18:39;10.70;;;3.60;;
53261;SDS011;39658;51.090;-1.786;2022-07-01T00:21:06;13.55;;;3.50;;
53261;SDS011;39658;51.090;-1.786;2022-07-01T00:23:33;10.90;;;3.20;;
53261;SDS011;39658;51.090;-1.786;2022-07-01T00:26:01;13.03;;;3.47;;
53261;SDS011;39658;51.090;-1.786;2022-07-01T00:28:28;13.02;;;4.38;;
53261;SDS011;39658;51.090;-1.786;2022-07-01T00:30:55;11.07;;;3.60;;
53261;SDS011;39658;51.090;-1.786;2022-07-01T00:33:22;11.45;;;3.63;;
53261;SDS011;39658;51.090;-1.786;2022-07-01T00:35:50;10.27;;;3.40;;
53261;SDS011;39658;51.090;-1.786;2022-07-01T00:38:17;20.83;;;3.90;;
53261;SDS011;39658;51.090;-1.786;2022-07-01T00:40:44;8.88;;;3.47;;
53261;SDS011;39658;51.090;-1.786;2022-07-01T00:43:11;9.30;;;3.40;;
53261;SDS011;39658;51.090;-1.786;2022-07-01T00:45:42;10.95;;;3.60;;
53261;SDS011;39658;51.090;-1.786;2022-07-01T00:48:10;14.32;;;3.72;;
53261;SDS011;39658;51.090;-1.786;2022-07-01T00:50:37;12.25;;;3.97;;
53261;SDS011;39658;51.090;-1.786;2022-07-01T00:53:05;8.23;;;3.40;;
53261;SDS011;39658;51.090;-1.786;2022-07-01T00:55:32;11.75;;;4.60;;
53261;SDS011;39658;51.090;-1.786;2022-07-01T00:57:59;14.75;;;4.05;;
53261;SDS011;39658;51.090;-1.786;2022-07-01T01:00:26;14.98;;;4.40;;
53261;SDS011;39658;51.090;-1.786;2022-07-01T01:02:52;10.02;;;3.90;;
53261;SDS011;39658;51.090;-1.786;2022-07-01T01:05:20;11.73;;;3.97;;
53261;SDS011;39658;51.090;-1.786;2022-07-01T01:07:47;13.48;;;4.47;;
53261;SDS011;39658;51.090;-1.786;2022-07-01T01:10:16;14.38;;;3.95;;
53261;SDS011;39658;51.090;-1.786;2022-07-01T01:12:44;10.35;;;3.72;;
53261;SDS011;39658;51.090;-1.786;2022-07-01T01:15:16;9.90;;;4.25;;
53261;SDS011;39658;51.090;-1.786;2022-07-01T01:17:44;11.00;;;4.05;;
53261;SDS011;39658;51.090;-1.786;2022-07-01T01:20:14;11.10;;;4.10;;
53261;SDS011;39658;51.090;-1.786;2022-07-01T01:22:42;13.65;;;4.90;;
53261;SDS011;39658;51.090;-1.786;2022-07-01T01:25:10;12.98;;;4.78;;
53261;SDS011;39658;51.090;-1.786;2022-07-01T01:27:37;14.32;;;5.18;;
53261;SDS011;39658;51.090;-1.786;2022-07-01T01:30:04;19.13;;;5.00;;
53261;SDS011;39658;51.090;-1.786;2022-07-01T01:32:31;14.02;;;4.80;;
53261;SDS011;39658;51.090;-1.786;2022-07-01T01:34:58;13.70;;;4.90;;
53261;SDS011;39658;51.090;-1.786;2022-07-01T01:37:25;13.50;;;4.45;;
53261;SDS011;39658;51.090;-1.786;2022-07-01T01:39:54;12.77;;;5.10;;
53261;SDS011;39658;51.090;-1.786;2022-07-01T01:42:20;16.17;;;5.07;;
53261;SDS011;39658;51.090;-1.786;2022-07-01T01:44:47;15.75;;;4.85;;
53261;SDS011;39658;51.090;-1.786;2022-07-01T01:47:14;14.70;;;4.88;;
53261;SDS011;39658;51.090;-1.786;2022-07-01T01:49:41;13.55;;;4.78;;
53261;SDS011;39658;51.090;-1.786;2022-07-01T01:52:08;16.17;;;4.97;;
53261;SDS011;39658;51.090;-1.786;2022-07-01T01:54:35;13.95;;;5.15;;
53261;SDS011;39658;51.090;-1.786;2022-07-01T01:57:03;13.57;;;4.63;;
53261;SDS011;39658;51.090;-1.786;2022-07-01T01:59:30;18.20;;;5.50;;
53261;SDS011;39658;51.090;-1.786;2022-07-01T02:01:57;11.85;;;4.65;;
53261;SDS011;39658;51.090;-1.786;2022-07-01T02:04:24;16.05;;;4.60;;
53261;SDS011;39658;51.090;-1.786;2022-07-01T02:06:51;21.05;;;4.70;;
53261;SDS011;39658;51.090;-1.786;2022-07-01T02:09:18;17.20;;;5.25;;
53261;SDS011;39658;51.090;-1.786;2022-07-01T02:11:45;11.02;;;4.93;;
53261;SDS011;39658;51.090;-1.786;2022-07-01T02:14:13;10.75;;;4.65;;
53261;SDS011;39658;51.090;-1.786;2022-07-01T02:16:40;14.18;;;4.68;;
53261;SDS011;39658;51.090;-1.786;2022-07-01T02:19:07;14.27;;;4.80;;
53261;SDS011;39658;51.090;-1.786;2022-07-01T02:21:34;22.92;;;4.80;;
53261;SDS011;39658;51.090;-1.786;2022-07-01T02:24:00;18.05;;;4.53;;
53261;SDS011;39658;51.090;-1.786;2022-07-01T02:26:27;25.25;;;4.18;;
53261;SDS011;39658;51.090;-1.786;2022-07-01T02:28:54;15.88;;;4.28;;
53261;SDS011;39658;51.090;-1.786;2022-07-01T02:31:22;13.40;;;4.53;;
53261;SDS011;39658;51.090;-1.786;2022-07-01T02:33:49;13.98;;;4.43;;
53261;SDS011;39658;51.090;-1.786;2022-07-01T02:36:16;11.93;;;4.50;;
53261;SDS011;39658;51.090;-1.786;2022-07-01T02:38:43;14.73;;;4.10;;
53261;SDS011;39658;51.090;-1.786;2022-07-01T02:41:10;15.85;;;4.88;;
53261;SDS011;39658;51.090;-1.786;2022-07-01T02:43:36;12.63;;;4.60;;
53261;SDS011;39658;51.090;-1.786;2022-07-01T02:46:03;15.30;;;4.68;;
53261;SDS011;39658;51.090;-1.786;2022-07-01T02:48:31;19.05;;;4.82;;
53261;SDS011;39658;51.090;-1.786;2022-07-01T02:51:00;15.32;;;4.97;;
53261;SDS011;39658;51.090;-1.786;2022-07-01T02:53:27;18.05;;;4.82;;
53261;SDS011;39658;51.090;-1.786;2022-07-01T02:55:54;12.75;;;4.45;;
53261;SDS011;39658;51.090;-1.786;2022-07-01T02:58:21;19.08;;;4.63;;
53261;SDS011;39658;51.090;-1.786;2022-07-01T03:00:47;13.13;;;4.60;;
53261;SDS011;39658;51.090;-1.786;2022-07-01T03:03:17;16.08;;;5.10;;
53261;SDS011;39658;51.090;-1.786;2022-07-01T03:05:45;18.25;;;4.97;;
53261;SDS011;39658;51.090;-1.786;2022-07-01T03:08:14;13.73;;;5.28;;
53261;SDS011;39658;51.090;-1.786;2022-07-01T03:10:40;14.55;;;5.80;;
53261;SDS011;39658;51.090;-1.786;2022-07-01T03:13:07;16.63;;;5.72;;
53261;SDS011;39658;51.090;-1.786;2022-07-01T03:15:34;14.05;;;5.82;;
53261;SDS011;39658;51.090;-1.786;2022-07-01T03:18:01;17.15;;;5.55;;
53261;SDS011;39658;51.090;-1.786;2022-07-01T03:20:27;16.73;;;6.40;;
53261;SDS011;39658;51.090;-1.786;2022-07-01T03:22:56;16.33;;;5.78;;
53261;SDS011;39658;51.090;-1.786;2022-07-01T03:25:22;14.90;;;5.50;;
53261;SDS011;39658;51.090;-1.786;2022-07-01T03:27:49;22.83;;;5.40;;
53261;SDS011;39658;51.090;-1.786;2022-07-01T03:30:16;14.90;;;4.90;;
53261;SDS011;39658;51.090;-1.786;2022-07-01T03:32:43;18.98;;;5.05;;
53261;SDS011;39658;51.090;-1.786;2022-07-01T03:35:10;18.08;;;5.22;;
53261;SDS011;39658;51.090;-1.786;2022-07-01T03:37:56;18.20;;;5.47;;
53261;SDS011;39658;51.090;-1.786;2022-07-01T03:40:23;16.50;;;5.20;;
53261;SDS011;39658;51.090;-1.786;2022-07-01T03:42:50;19.45;;;5.43;;
53261;SDS011;39658;51.090;-1.786;2022-07-01T03:45:17;14.93;;;5.55;;
53261;SDS011;39658;51.090;-1.786;2022-07-01T03:47:44;18.33;;;5.10;;
53261;SDS011;39658;51.090;-1.786;2022-07-01T03:50:12;15.47;;;5.00;;
53261;SDS011;39658;51.090;-1.786;2022-07-01T03:52:39;18.23;;;5.05;;
53261;SDS011;39658;51.090;-1.786;2022-07-01T03:55:09;12.55;;;5.22;;
53261;SDS011;39658;51.090;-1.786;2022-07-01T03:57:35;18.23;;;5.68;;
53261;SDS011;39658;51.090;-1.786;2022-07-01T04:00:02;19.23;;;5.75;;
53261;SDS011;39658;51.090;-1.786;2022-07-01T04:02:30;18.33;;;5.97;;
53261;SDS011;39658;51.090;-1.786;2022-07-01T04:04:57;16.70;;;5.45;;
53261;SDS011;39658;51.090;-1.786;2022-07-01T04:07:23;19.48;;;5.32;;
53261;SDS011;39658;51.090;-1.786;2022-07-01T04:09:51;13.68;;;5.30;;
53261;SDS011;39658;51.090;-1.786;2022-07-01T04:12:19;16.52;;;5.35;;
53261;SDS011;39658;51.090;-1.786;2022-07-01T04:14:47;21.42;;;6.10;;
53261;SDS011;39658;51.090;-1.786;2022-07-01T04:17:14;15.60;;;6.18;;
53261;SDS011;39658;51.090;-1.786;2022-07-01T04:19:40;22.27;;;6.13;;
53261;SDS011;39658;51.090;-1.786;2022-07-01T04:22:07;18.23;;;5.60;;
53261;SDS011;39658;51.090;-1.786;2022-07-01T04:24:52;17.60;;;5.18;;
53261;SDS011;39658;51.090;-1.786;2022-07-01T04:27:20;14.73;;;5.50;;
53261;SDS011;39658;51.090;-1.786;2022-07-01T04:29:47;12.50;;;5.18;;
53261;SDS011;39658;51.090;-1.786;2022-07-01T04:32:14;22.10;;;5.75;;
53261;SDS011;39658;51.090;-1.786;2022-07-01T04:34:41;17.25;;;4.82;;
53261;SDS011;39658;51.090;-1.786;2022-07-01T04:37:07;11.98;;;4.90;;
53261;SDS011;39658;51.090;-1.786;2022-07-01T04:39:34;14.60;;;4.90;;
53261;SDS011;39658;51.090;-1.786;2022-07-01T04:42:01;13.52;;;4.85;;
53261;SDS011;39658;51.090;-1.786;2022-07-01T04:44:30;13.80;;;4.43;;
53261;SDS011;39658;51.090;-1.786;2022-07-01T04:46:58;13.93;;;4.10;;
53261;SDS011;39658;51.090;-1.786;2022-07-01T04:49:26;11.68;;;4.53;;
53261;SDS011;39658;51.090;-1.786;2022-07-01T04:51:53;11.30;;;3.88;;
53261;SDS011;39658;51.090;-1.786;2022-07-01T04:54:20;15.75;;;4.50;;
53261;SDS011;39658;51.090;-1.786;2022-07-01T04:56:48;14.38;;;4.40;;
53261;SDS011;39658;51.090;-1.786;2022-07-01T04:59:15;23.30;;;4.95;;
53261;SDS011;39658;51.090;-1.786;2022-07-01T05:01:43;13.50;;;4.10;;
53261;SDS011;39658;51.090;-1.786;2022-07-01T05:04:14;10.82;;;3.85;;
53261;SDS011;39658;51.090;-1.786;2022-07-01T05:06:41;18.33;;;4.47;;
53261;SDS011;39658;51.090;-1.786;2022-07-01T05:09:08;11.52;;;4.10;;
53261;SDS011;39658;51.090;-1.786;2022-07-01T05:11:35;15.85;;;4.38;;
53261;SDS011;39658;51.090;-1.786;2022-07-01T05:14:01;16.60;;;4.43;;
53261;SDS011;39658;51.090;-1.786;2022-07-01T05:16:28;14.35;;;4.07;;
53261;SDS011;39658;51.090;-1.786;2022-07-01T05:18:56;14.25;;;3.97;;
53261;SDS011;39658;51.090;-1.786;2022-07-01T05:21:40;23.67;;;4.68;;
53261;SDS011;39658;51.090;-1.786;2022-07-01T05:24:23;17.08;;;3.90;;
53261;SDS011;39658;51.090;-1.786;2022-07-01T05:26:50;16.38;;;4.10;;
53261;SDS011;39658;51.090;-1.786;2022-07-01T05:29:17;14.88;;;3.90;;
53261;SDS011;39658;51.090;-1.786;2022-07-01T05:31:44;17.17;;;4.55;;
53261;SDS011;39658;51.090;-1.786;2022-07-01T05:34:12;15.88;;;3.55;;
53261;SDS011;39658;51.090;-1.786;2022-07-01T05:36:39;12.93;;;3.08;;
53261;SDS011;39658;51.090;-1.786;2022-07-01T05:39:06;13.93;;;2.90;;
53261;SDS011;39658;51.090;-1.786;2022-07-01T05:41:33;9.55;;;2.70;;
53261;SDS011;39658;51.090;-1.786;2022-07-01T05:44:00;9.85;;;2.80;;
53261;SDS011;39658;51.090;-1.786;2022-07-01T05:46:27;10.20;;;2.85;;
53261;SDS011;39658;51.090;-1.786;2022-07-01T05:48:54;12.38;;;3.10;;
53261;SDS011;39658;51.090;-1.786;2022-07-01T05:51:22;8.82;;;3.25;;
53261;SDS011;39658;51.090;-1.786;2022-07-01T05:53:49;11.23;;;2.72;;
53261;SDS011;39658;51.090;-1.786;2022-07-01T05:56:15;11.75;;;2.78;;
53261;SDS011;39658;51.090;-1.786;2022-07-01T05:58:42;12.45;;;2.90;;
53261;SDS011;39658;51.090;-1.786;2022-07-01T06:01:09;16.10;;;3.17;;
53261;SDS011;39658;51.090;-1.786;2022-07-01T06:03:36;12.05;;;3.50;;
53261;SDS011;39658;51.090;-1.786;2022-07-01T06:06:03;12.10;;;3.20;;
53261;SDS011;39658;51.090;-1.786;2022-07-01T06:08:32;12.05;;;2.80;;
53261;SDS011;39658;51.090;-1.786;2022-07-01T06:10:58;11.93;;;3.10;;
53261;SDS011;39658;51.090;-1.786;2022-07-01T06:13:25;13.52;;;3.22;;
53261;SDS011;39658;51.090;-1.786;2022-07-01T06:15:54;17.45;;;3.22;;
53261;SDS011;39658;51.090;-1.786;2022-07-01T06:18:22;13.02;;;3.50;;
53261;SDS011;39658;51.090;-1.786;2022-07-01T06:20:49;11.53;;;2.97;;
53261;SDS011;39658;51.090;-1.786;2022-07-01T06:23:15;14.57;;;2.97;;
53261;SDS011;39658;51.090;-1.786;2022-07-01T06:25:44;14.77;;;3.50;;
53261;SDS011;39658;51.090;-1.786;2022-07-01T06:28:11;11.60;;;3.15;;
53261;SDS011;39658;51.090;-1.786;2022-07-01T06:30:38;11.40;;;3.05;;
53261;SDS011;39658;51.090;-1.786;2022-07-01T06:33:08;12.98;;;2.97;;
53261;SDS011;39658;51.090;-1.786;2022-07-01T06:35:35;10.30;;;2.65;;
53261;SDS011;39658;51.090;-1.786;2022-07-01T06:38:02;12.70;;;2.58;;
53261;SDS011;39658;51.090;-1.786;2022-07-01T06:40:29;12.55;;;2.53;;
53261;SDS011;39658;51.090;-1.786;2022-07-01T06:42:57;12.77;;;2.95;;
53261;SDS011;39658;51.090;-1.786;2022-07-01T06:45:24;9.70;;;2.75;;
53261;SDS011;39658;51.090;-1.786;2022-07-01T06:47:51;14.55;;;3.20;;
53261;SDS011;39658;51.090;-1.786;2022-07-01T06:50:18;13.15;;;2.80;;
53261;SDS011;39658;51.090;-1.786;2022-07-01T06:52:44;13.85;;;2.63;;
53261;SDS011;39658;51.090;-1.786;2022-07-01T06:55:11;11.13;;;2.63;;
53261;SDS011;39658;51.090;-1.786;2022-07-01T06:57:38;13.90;;;3.20;;
53261;SDS011;39658;51.090;-1.786;2022-07-01T07:00:07;11.32;;;2.78;;
53261;SDS011;39658;51.090;-1.786;2022-07-01T07:02:35;13.20;;;2.80;;
53261;SDS011;39658;51.090;-1.786;2022-07-01T07:05:02;13.85;;;2.60;;
53261;SDS011;39658;51.090;-1.786;2022-07-01T07:07:28;15.40;;;2.88;;
53261;SDS011;39658;51.090;-1.786;2022-07-01T07:09:55;11.43;;;2.63;;
53261;SDS011;39658;51.090;-1.786;2022-07-01T07:12:22;19.60;;;3.20;;
53261;SDS011;39658;51.090;-1.786;2022-07-01T07:14:49;14.55;;;2.92;;
53261;SDS011;39658;51.090;-1.786;2022-07-01T07:17:17;12.55;;;2.63;;
53261;SDS011;39658;51.090;-1.786;2022-07-01T07:19:44;10.77;;;2.53;;
53261;SDS011;39658;51.090;-1.786;2022-07-01T07:22:11;14.40;;;3.00;;
53261;SDS011;39658;51.090;-1.786;2022-07-01T07:24:37;16.65;;;6.15;;
53261;SDS011;39658;51.090;-1.786;2022-07-01T07:27:04;11.98;;;2.33;;
53261;SDS011;39658;51.090;-1.786;2022-07-01T07:29:31;12.20;;;2.63;;
53261;SDS011;39658;51.090;-1.786;2022-07-01T07:31:58;12.82;;;2.65;;
53261;SDS011;39658;51.090;-1.786;2022-07-01T07:34:26;11.27;;;2.40;;
53261;SDS011;39658;51.090;-1.786;2022-07-01T07:36:53;13.55;;;2.70;;
53261;SDS011;39658;51.090;-1.786;2022-07-01T07:39:20;10.95;;;2.50;;
53261;SDS011;39658;51.090;-1.786;2022-07-01T07:41:46;11.63;;;2.60;;
53261;SDS011;39658;51.090;-1.786;2022-07-01T07:44:14;13.52;;;2.70;;
53261;SDS011;39658;51.090;-1.786;2022-07-01T07:46:41;12.25;;;2.67;;
53261;SDS011;39658;51.090;-1.786;2022-07-01T07:49:08;23.77;;;2.80;;
53261;SDS011;39658;51.090;-1.786;2022-07-01T07:51:36;10.00;;;2.55;;
53261;SDS011;39658;51.090;-1.786;2022-07-01T07:54:03;12.63;;;2.33;;
53261;SDS011;39658;51.090;-1.786;2022-07-01T07:56:30;13.85;;;3.00;;
53261;SDS011;39658;51.090;-1.786;2022-07-01T07:58:57;13.27;;;2.60;;
53261;SDS011;39658;51.090;-1.786;2022-07-01T08:01:24;12.35;;;2.35;;
53261;SDS011;39658;51.090;-1.786;2022-07-01T08:03:51;12.35;;;2.67;;
53261;SDS011;39658;51.090;-1.786;2022-07-01T08:06:18;11.63;;;2.78;;
53261;SDS011;39658;51.090;-1.786;2022-07-01T08:08:46;15.05;;;2.70;;
53261;SDS011;39658;51.090;-1.786;2022-07-01T08:11:13;15.27;;;2.55;;
53261;SDS011;39658;51.090;-1.786;2022-07-01T08:13:40;11.35;;;2.30;;
53261;SDS011;39658;51.090;-1.786;2022-07-01T08:16:07;13.50;;;2.60;;
53261;SDS011;39658;51.090;-1.786;2022-07-01T08:18:35;10.45;;;2.35;;
53261;SDS011;39658;51.090;-1.786;2022-07-01T08:21:02;12.23;;;2.70;;
53261;SDS011;39658;51.090;-1.786;2022-07-01T08:23:29;10.80;;;2.37;;
53261;SDS011;39658;51.090;-1.786;2022-07-01T08:25:57;11.50;;;2.27;;
53261;SDS011;39658;51.090;-1.786;2022-07-01T08:28:24;9.32;;;2.20;;
53261;SDS011;39658;51.090;-1.786;2022-07-01T08:30:50;14.85;;;2.40;;
53261;SDS011;39658;51.090;-1.786;2022-07-01T08:33:17;12.57;;;2.00;;
53261;SDS011;39658;51.090;-1.786;2022-07-01T08:35:44;10.98;;;2.17;;
53261;SDS011;39658;51.090;-1.786;2022-07-01T08:38:11;13.05;;;2.67;;
53261;SDS011;39658;51.090;-1.786;2022-07-01T08:40:38;9.30;;;2.30;;
53261;SDS011;39658;51.090;-1.786;2022-07-01T08:43:07;9.13;;;2.08;;
53261;SDS011;39658;51.090;-1.786;2022-07-01T08:45:35;8.98;;;2.22;;
53261;SDS011;39658;51.090;-1.786;2022-07-01T08:48:03;10.60;;;2.47;;
53261;SDS011;39658;51.090;-1.786;2022-07-01T08:50:33;10.45;;;2.05;;
53261;SDS011;39658;51.090;-1.786;2022-07-01T08:53:02;13.73;;;2.90;;
53261;SDS011;39658;51.090;-1.786;2022-07-01T08:55:29;12.57;;;2.40;;
53261;SDS011;39658;51.090;-1.786;2022-07-01T08:57:56;12.07;;;2.40;;
53261;SDS011;39658;51.090;-1.786;2022-07-01T09:00:30;8.55;;;1.90;;
53261;SDS011;39658;51.090;-1.786;2022-07-01T09:02:59;11.20;;;1.90;;
53261;SDS011;39658;51.090;-1.786;2022-07-01T09:05:28;12.55;;;2.38;;
53261;SDS011;39658;51.090;-1.786;2022-07-01T09:07:56;9.38;;;2.20;;
53261;SDS011;39658;51.090;-1.786;2022-07-01T09:10:25;8.95;;;1.88;;
53261;SDS011;39658;51.090;-1.786;2022-07-01T09:12:52;10.38;;;2.17;;
53261;SDS011;39658;51.090;-1.786;2022-07-01T09:15:22;8.98;;;2.10;;
53261;SDS011;39658;51.090;-1.786;2022-07-01T09:17:56;11.35;;;2.00;;
53261;SDS011;39658;51.090;-1.786;2022-07-01T09:20:39;10.13;;;2.05;;
53261;SDS011;39658;51.090;-1.786;2022-07-01T09:23:08;11.70;;;2.05;;
53261;SDS011;39658;51.090;-1.786;2022-07-01T09:25:38;11.68;;;2.30;;
53261;SDS011;39658;51.090;-1.786;2022-07-01T09:28:09;12.52;;;2.42;;
53261;SDS011;39658;51.090;-1.786;2022-07-01T09:30:38;9.90;;;2.17;;
53261;SDS011;39658;51.090;-1.786;2022-07-01T09:33:10;9.55;;;2.40;;
53261;SDS011;39658;51.090;-1.786;2022-07-01T09:35:38;9.63;;;2.30;;
53261;SDS011;39658;51.090;-1.786;2022-07-01T09:38:07;9.55;;;2.10;;
53261;SDS011;39658;51.090;-1.786;2022-07-01T09:40:46;9.63;;;2.40;;
53261;SDS011;39658;51.090;-1.786;2022-07-01T09:43:14;11.55;;;2.50;;
53261;SDS011;39658;51.090;-1.786;2022-07-01T09:45:52;12.07;;;2.50;;
53261;SDS011;39658;51.090;-1.786;2022-07-01T09:48:25;13.73;;;2.72;;
53261;SDS011;39658;51.090;-1.786;2022-07-01T09:50:53;14.98;;;2.65;;
53261;SDS011;39658;51.090;-1.786;2022-07-01T09:53:20;8.10;;;2.17;;
53261;SDS011;39658;51.090;-1.786;2022-07-01T09:55:47;10.57;;;2.17;;
53261;SDS011;39658;51.090;-1.786;2022-07-01T09:58:14;9.73;;;2.08;;
53261;SDS011;39658;51.090;-1.786;2022-07-01T10:00:41;10.40;;;2.22;;
53261;SDS011;39658;51.090;-1.786;2022-07-01T10:03:09;7.60;;;1.85;;
53261;SDS011;39658;51.090;-1.786;2022-07-01T10:05:40;8.80;;;1.77;;
53261;SDS011;39658;51.090;-1.786;2022-07-01T10:08:19;10.35;;;1.98;;
53261;SDS011;39658;51.090;-1.786;2022-07-01T10:10:57;12.07;;;2.10;;
53261;SDS011;39658;51.090;-1.786;2022-07-01T10:13:31;8.52;;;2.00;;
53261;SDS011;39658;51.090;-1.786;2022-07-01T10:16:01;7.68;;;1.75;;
53261;SDS011;39658;51.090;-1.786;2022-07-01T10:18:29;7.93;;;1.80;;
53261;SDS011;39658;51.090;-1.786;2022-07-01T10:20:58;13.48;;;2.00;;
53261;SDS011;39658;51.090;-1.786;2022-07-01T10:23:28;7.93;;;1.60;;
53261;SDS011;39658;51.090;-1.786;2022-07-01T10:26:03;6.00;;;1.70;;
53261;SDS011;39658;51.090;-1.786;2022-07-01T10:28:40;12.00;;;1.83;;
53261;SDS011;39658;51.090;-1.786;2022-07-01T10:31:09;10.90;;;1.90;;
53261;SDS011;39658;51.090;-1.786;2022-07-01T10:33:44;13.02;;;1.83;;
53261;SDS011;39658;51.090;-1.786;2022-07-01T10:36:15;9.73;;;1.90;;
53261;SDS011;39658;51.090;-1.786;2022-07-01T10:39:08;8.10;;;1.63;;
53261;SDS011;39658;51.090;-1.786;2022-07-01T10:41:39;8.43;;;1.70;;
53261;SDS011;39658;51.090;-1.786;2022-07-01T10:44:08;7.47;;;1.77;;
53261;SDS011;39658;51.090;-1.786;2022-07-01T10:46:40;11.27;;;2.22;;
53261;SDS011;39658;51.090;-1.786;2022-07-01T10:49:09;7.27;;;1.90;;
53261;SDS011;39658;51.090;-1.786;2022-07-01T10:51:49;7.43;;;1.73;;
53261;SDS011;39658;51.090;-1.786;2022-07-01T10:57:21;6.38;;;1.70;;
53261;SDS011;39658;51.090;-1.786;2022-07-01T10:59:52;5.82;;;1.65;;
53261;SDS011;39658;51.090;-1.786;2022-07-01T11:02:21;7.97;;;1.67;;
53261;SDS011;39658;51.090;-1.786;2022-07-01T11:04:49;7.22;;;1.65;;
53261;SDS011;39658;51.090;-1.786;2022-07-01T11:07:19;7.22;;;1.73;;
53261;SDS011;39658;51.090;-1.786;2022-07-01T11:09:46;7.45;;;1.60;;
53261;SDS011;39658;51.090;-1.786;2022-07-01T11:12:14;6.45;;;1.58;;
53261;SDS011;39658;51.090;-1.786;2022-07-01T11:14:42;7.40;;;1.63;;
53261;SDS011;39658;51.090;-1.786;2022-07-01T11:17:09;6.90;;;1.67;;
53261;SDS011;39658;51.090;-1.786;2022-07-01T11:19:36;7.17;;;1.73;;
53261;SDS011;39658;51.090;-1.786;2022-07-01T11:22:03;6.53;;;1.52;;
53261;SDS011;39658;51.090;-1.786;2022-07-01T11:24:32;7.60;;;1.70;;
53261;SDS011;39658;51.090;-1.786;2022-07-01T11:27:00;6.53;;;1.38;;
53261;SDS011;39658;51.090;-1.786;2022-07-01T11:29:32;6.85;;;1.70;;
53261;SDS011;39658;51.090;-1.786;2022-07-01T11:31:59;8.65;;;1.65;;
53261;SDS011;39658;51.090;-1.786;2022-07-01T11:34:26;6.88;;;1.67;;
53261;SDS011;39658;51.090;-1.786;2022-07-01T11:36:54;6.75;;;1.67;;
53261;SDS011;39658;51.090;-1.786;2022-07-01T11:39:49;7.78;;;1.73;;
53261;SDS011;39658;51.090;-1.786;2022-07-01T11:42:16;7.28;;;1.70;;
53261;SDS011;39658;51.090;-1.786;2022-07-01T11:44:43;8.05;;;2.10;;
53261;SDS011;39658;51.090;-1.786;2022-07-01T11:47:11;9.05;;;1.70;;
53261;SDS011;39658;51.090;-1.786;2022-07-01T11:49:49;6.65;;;1.58;;
53261;SDS011;39658;51.090;-1.786;2022-07-01T11:52:17;6.20;;;1.83;;
53261;SDS011;39658;51.090;-1.786;2022-07-01T11:54:47;6.85;;;1.40;;
53261;SDS011;39658;51.090;-1.786;2022-07-01T11:57:17;5.35;;;1.38;;
53261;SDS011;39658;51.090;-1.786;2022-07-01T11:59:45;6.75;;;1.60;;
53261;SDS011;39658;51.090;-1.786;2022-07-01T12:02:14;8.98;;;1.75;;
53261;SDS011;39658;51.090;-1.786;2022-07-01T12:04:44;4.88;;;1.35;;
53261;SDS011;39658;51.090;-1.786;2022-07-01T12:07:12;6.80;;;1.63;;
53261;SDS011;39658;51.090;-1.786;2022-07-01T12:09:40;6.72;;;1.48;;
53261;SDS011;39658;51.090;-1.786;2022-07-01T12:12:15;12.15;;;1.42;;
53261;SDS011;39658;51.090;-1.786;2022-07-01T12:14:49;2.72;;;0.88;;
53261;SDS011;39658;51.090;-1.786;2022-07-01T12:17:17;5.20;;;1.20;;
53261;SDS011;39658;51.090;-1.786;2022-07-01T12:19:44;5.72;;;1.63;;
53261;SDS011;39658;51.090;-1.786;2022-07-01T12:22:14;7.45;;;1.50;;
53261;SDS011;39658;51.090;-1.786;2022-07-01T12:24:43;6.40;;;1.48;;
53261;SDS011;39658;51.090;-1.786;2022-07-01T12:27:10;6.10;;;1.38;;
53261;SDS011;39658;51.090;-1.786;2022-07-01T12:29:51;6.47;;;1.40;;
53261;SDS011;39658;51.090;-1.786;2022-07-01T12:32:20;5.57;;;1.38;;
53261;SDS011;39658;51.090;-1.786;2022-07-01T12:34:49;9.90;;;1.45;;
53261;SDS011;39658;51.090;-1.786;2022-07-01T12:37:18;6.70;;;1.90;;
53261;SDS011;39658;51.090;-1.786;2022-07-01T12:39:47;5.85;;;1.50;;
53261;SDS011;39658;51.090;-1.786;2022-07-01T12:42:25;6.47;;;1.20;;
53261;SDS011;39658;51.090;-1.786;2022-07-01T12:44:55;6.85;;;1.70;;
53261;SDS011;39658;51.090;-1.786;2022-07-01T12:47:24;11.80;;;1.45;;
53261;SDS011;39658;51.090;-1.786;2022-07-01T12:50:09;6.95;;;1.42;;
53261;SDS011;39658;51.090;-1.786;2022-07-01T12:52:37;5.40;;;1.33;;
53261;SDS011;39658;51.090;-1.786;2022-07-01T12:55:12;6.50;;;1.55;;
53261;SDS011;39658;51.090;-1.786;2022-07-01T12:57:41;7.75;;;1.42;;
53261;SDS011;39658;51.090;-1.786;2022-07-01T13:00:09;5.50;;;1.30;;
53261;SDS011;39658;51.090;-1.786;2022-07-01T13:02:40;7.30;;;1.60;;
53261;SDS011;39658;51.090;-1.786;2022-07-01T13:05:08;5.05;;;1.30;;
53261;SDS011;39658;51.090;-1.786;2022-07-01T13:07:35;6.25;;;1.38;;
53261;SDS011;39658;51.090;-1.786;2022-07-01T13:10:02;11.80;;;1.67;;
53261;SDS011;39658;51.090;-1.786;2022-07-01T13:12:29;8.02;;;1.67;;
53261;SDS011;39658;51.090;-1.786;2022-07-01T13:14:58;5.80;;;1.45;;
53261;SDS011;39658;51.090;-1.786;2022-07-01T13:17:27;7.28;;;1.40;;
53261;SDS011;39658;51.090;-1.786;2022-07-01T13:19:54;7.18;;;1.60;;
53261;SDS011;39658;51.090;-1.786;2022-07-01T13:22:21;7.53;;;1.47;;
53261;SDS011;39658;51.090;-1.786;2022-07-01T13:24:48;8.83;;;1.50;;
53261;SDS011;39658;51.090;-1.786;2022-07-01T13:27:15;7.43;;;1.50;;
53261;SDS011;39658;51.090;-1.786;2022-07-01T13:29:42;9.15;;;1.50;;
53261;SDS011;39658;51.090;-1.786;2022-07-01T13:32:08;5.82;;;1.50;;
53261;SDS011;39658;51.090;-1.786;2022-07-01T13:34:37;6.75;;;1.52;;
53261;SDS011;39658;51.090;-1.786;2022-07-01T13:37:04;6.40;;;1.40;;
53261;SDS011;39658;51.090;-1.786;2022-07-01T13:39:31;9.82;;;1.77;;
53261;SDS011;39658;51.090;-1.786;2022-07-01T13:41:58;8.50;;;1.45;;
53261;SDS011;39658;51.090;-1.786;2022-07-01T13:44:24;7.97;;;1.60;;
53261;SDS011;39658;51.090;-1.786;2022-07-01T13:46:51;7.57;;;1.40;;
53261;SDS011;39658;51.090;-1.786;2022-07-01T13:49:18;7.05;;;1.63;;
53261;SDS011;39658;51.090;-1.786;2022-07-01T13:51:46;5.55;;;1.38;;
53261;SDS011;39658;51.090;-1.786;2022-07-01T13:54:13;4.75;;;1.27;;
53261;SDS011;39658;51.090;-1.786;2022-07-01T13:56:40;4.35;;;1.67;;
53261;SDS011;39658;51.090;-1.786;2022-07-01T13:59:09;5.85;;;1.30;;
53261;SDS011;39658;51.090;-1.786;2022-07-01T14:01:36;6.45;;;1.50;;
53261;SDS011;39658;51.090;-1.786;2022-07-01T14:04:03;6.03;;;1.40;;
53261;SDS011;39658;51.090;-1.786;2022-07-01T14:06:30;9.20;;;1.30;;
53261;SDS011;39658;51.090;-1.786;2022-07-01T14:08:59;9.63;;;1.27;;
53261;SDS011;39658;51.090;-1.786;2022-07-01T14:11:25;6.63;;;1.55;;
53261;SDS011;39658;51.090;-1.786;2022-07-01T14:13:52;6.35;;;1.10;;
53261;SDS011;39658;51.090;-1.786;2022-07-01T14:16:19;4.70;;;1.00;;
53261;SDS011;39658;51.090;-1.786;2022-07-01T14:18:46;4.07;;;0.95;;
53261;SDS011;39658;51.090;-1.786;2022-07-01T14:21:13;3.95;;;1.00;;
53261;SDS011;39658;51.090;-1.786;2022-07-01T14:23:40;5.15;;;0.93;;
53261;SDS011;39658;51.090;-1.786;2022-07-01T14:26:08;6.78;;;1.23;;
53261;SDS011;39658;51.090;-1.786;2022-07-01T14:28:34;5.10;;;1.10;;
53261;SDS011;39658;51.090;-1.786;2022-07-01T14:31:01;3.13;;;0.75;;
53261;SDS011;39658;51.090;-1.786;2022-07-01T14:33:28;3.25;;;0.80;;
53261;SDS011;39658;51.090;-1.786;2022-07-01T14:35:55;6.20;;;1.10;;